KEWR/EWR METAR and TAF weather

Enter ICAO airport designator
Station Type Date Time Source
KEWR METAR 2018/12/17 15:51 UTC NOAA

KEWR 171551Z 28014KT 10SM FEW028 SCT200 BKN250 08/02 A2973 RMK AO2 SLP066 T00830022


Station Type Date Time Source
KEWR Decoded METAR 2018/12/17 15:51 UTC NOAA

NEWARK INTERNATIONAL AIRPORT, NJ, United States (KEWR) 40-41N 74-10W 7M
Dec 17, 2018 - 10:51 AM EST / 2018.12.17 1551 UTC
Wind: from the W (280 degrees) at 16 MPH (14 KT):0
Visibility: 10 mile(s):0
Sky conditions: mostly cloudy
Temperature: 46.9 F (8.3 C)
Dew Point: 36.0 F (2.2 C)
Relative Humidity: 65%
Pressure (altimeter): 29.73 in. Hg (1006 hPa)
ob: KEWR 171551Z 28014KT 10SM FEW028 SCT200 BKN250 08/02 A2973 RMK AO2 SLP066 T00830022
cycle: 16

Station Type Date Time Source
KEWR TAF 2018/12/17 16:51 UTC NOAA

TAF
AMD KEWR 171549Z 1716/1818 29011G17KT P6SM SCT020 BKN040
FM171800 29016G24KT P6SM SCT040
FM172000 29021G31KT P6SM BKN045
FM172300 30021G30KT P6SM SCT045 SCT250
FM181000 32018G26KT P6SM SCT250


Example: see airport list